createdAt,value
2022-09-23T00:01:23.675Z,101518.84
2022-09-23T00:03:56.384Z,101534.00
2022-09-23T00:06:24.351Z,101515.59
2022-09-23T00:08:52.599Z,101532.09
2022-09-23T00:11:28.204Z,101515.78
2022-09-23T00:13:58.354Z,101516.41
2022-09-23T00:16:34.002Z,101513.47
2022-09-23T00:19:05.109Z,101518.13
2022-09-23T00:21:32.480Z,101522.66
2022-09-23T00:23:59.690Z,101519.63
2022-09-23T00:26:27.583Z,101509.63
2022-09-23T00:28:54.918Z,101518.47
2022-09-23T00:31:25.920Z,101520.22
2022-09-23T00:33:59.280Z,101512.81
2022-09-23T00:36:29.131Z,101514.59
2022-09-23T00:38:56.528Z,101526.81
2022-09-23T00:41:24.966Z,101504.91
2022-09-23T00:44:00.699Z,101513.13
2022-09-23T00:46:47.998Z,101513.47
2022-09-23T00:49:25.122Z,101498.81
2022-09-23T00:52:00.730Z,101493.41
2022-09-23T00:54:31.197Z,101497.56
2022-09-23T00:57:00.519Z,101494.66
2022-09-23T00:59:29.174Z,101488.13
2022-09-23T01:01:58.835Z,101500.19
2022-09-23T01:04:28.132Z,101503.84
2022-09-23T01:06:55.497Z,101492.00
2022-09-23T01:09:24.016Z,101497.59
2022-09-23T01:12:04.356Z,101492.00
2022-09-23T01:14:43.891Z,101492.78
2022-09-23T01:17:48.951Z,101495.34
2022-09-23T01:21:14.971Z,101489.72
2022-09-23T01:24:30.011Z,101481.22
2022-09-23T01:27:15.796Z,101486.25
2022-09-23T01:30:11.097Z,101485.28
2022-09-23T01:33:04.676Z,101477.41
2022-09-23T01:36:10.047Z,101479.28
2022-09-23T01:38:44.895Z,101480.09
2022-09-23T01:41:44.660Z,101481.69
2022-09-23T01:44:21.606Z,101476.72
2022-09-23T01:47:25.002Z,101472.56
2022-09-23T01:49:52.237Z,101477.41
2022-09-23T01:52:40.199Z,101470.97
2022-09-23T01:55:08.869Z,101476.09
2022-09-23T01:58:26.379Z,101475.81
2022-09-23T02:01:01.690Z,101465.50
2022-09-23T02:03:34.655Z,101466.13
2022-09-23T02:06:08.949Z,101462.47
2022-09-23T02:08:43.980Z,101462.47
2022-09-23T02:11:18.228Z,101466.97
2022-09-23T02:13:52.032Z,101468.88
2022-09-23T02:16:26.191Z,101479.97
2022-09-23T02:19:09.910Z,101459.22
2022-09-23T02:21:42.927Z,101458.56
2022-09-23T02:24:17.242Z,101457.94
2022-09-23T02:26:58.877Z,101464.72
2022-09-23T02:29:41.680Z,101460.38
2022-09-23T02:32:26.685Z,101464.88
2022-09-23T02:35:00.241Z,101463.75
2022-09-23T02:37:49.647Z,101465.00
2022-09-23T02:40:26.280Z,101453.28
2022-09-23T02:43:07.012Z,101457.00
2022-09-23T02:45:35.628Z,101457.59
2022-09-23T02:48:07.901Z,101441.19
2022-09-23T02:50:40.020Z,101443.94
2022-09-23T02:53:07.739Z,101444.31
2022-09-23T02:55:35.345Z,101448.63
2022-09-23T02:58:05.462Z,101446.63
2022-09-23T03:00:48.074Z,101453.41
2022-09-23T03:03:46.510Z,101451.16
2022-09-23T03:06:46.333Z,101442.31
2022-09-23T03:09:46.648Z,101426.88
2022-09-23T03:12:23.084Z,101446.16
2022-09-23T03:14:58.768Z,101428.66
2022-09-23T03:17:33.852Z,101435.13
2022-09-23T03:20:10.892Z,101434.13
2022-09-23T03:22:42.196Z,101434.25
2022-09-23T03:25:16.081Z,101424.44
2022-09-23T03:27:45.602Z,101426.72
2022-09-23T03:30:13.790Z,101425.13
2022-09-23T03:32:46.292Z,101429.94
2022-09-23T03:35:15.094Z,101428.81
2022-09-23T03:37:53.655Z,101435.38
2022-09-23T03:40:32.587Z,101425.75
2022-09-23T03:43:02.639Z,101427.19
2022-09-23T03:45:33.341Z,101420.75
2022-09-23T03:48:01.301Z,101423.97
2022-09-23T03:50:28.838Z,101420.94
2022-09-23T03:52:56.300Z,101408.09
2022-09-23T03:55:23.719Z,101418.53
2022-09-23T03:57:51.195Z,101406.16
2022-09-23T04:00:18.733Z,101403.72
2022-09-23T04:02:46.061Z,101403.22
2022-09-23T04:05:13.699Z,101404.34
2022-09-23T04:07:41.249Z,101411.56
2022-09-23T04:10:09.992Z,101410.44
2022-09-23T04:12:38.246Z,101400.97
2022-09-23T04:15:06.327Z,101387.44
2022-09-23T04:17:33.736Z,101394.88
2022-09-23T04:20:01.192Z,101401.31
2022-09-23T04:22:28.765Z,101392.78
2022-09-23T04:24:56.555Z,101399.03
2022-09-23T04:27:24.029Z,101396.44
2022-09-23T04:29:51.344Z,101389.56
2022-09-23T04:32:18.820Z,101393.56
2022-09-23T04:34:46.168Z,101399.84
2022-09-23T04:37:13.649Z,101388.56
2022-09-23T04:39:40.945Z,101390.19
2022-09-23T04:42:09.502Z,101387.59
2022-09-23T04:44:36.793Z,101396.28
2022-09-23T04:47:04.482Z,101395.44
2022-09-23T04:49:33.301Z,101397.56
2022-09-23T04:52:00.720Z,101399.31
2022-09-23T04:54:28.049Z,101394.81
2022-09-23T04:56:55.548Z,101396.75
2022-09-23T04:59:22.802Z,101393.06
2022-09-23T05:01:52.001Z,101399.03
2022-09-23T05:04:19.339Z,101399.50
2022-09-23T05:06:46.631Z,101404.34
2022-09-23T05:09:19.987Z,101398.13
2022-09-23T05:11:47.315Z,101403.06
2022-09-23T05:14:14.723Z,101404.41
2022-09-23T05:16:42.022Z,101408.53
2022-09-23T05:19:09.321Z,101413.84
2022-09-23T05:21:37.777Z,101412.38
2022-09-23T05:24:05.675Z,101413.06
2022-09-23T05:26:33.665Z,101418.19
2022-09-23T05:29:01.072Z,101406.16
2022-09-23T05:31:30.287Z,101416.94
2022-09-23T05:34:02.930Z,101406.81
2022-09-23T05:36:37.576Z,101414.06
2022-09-23T05:39:07.359Z,101409.41
2022-09-23T05:41:36.528Z,101408.22
2022-09-23T05:44:04.327Z,101401.31
2022-09-23T05:46:32.187Z,101408.72
2022-09-23T05:49:03.015Z,101412.53
2022-09-23T05:51:32.500Z,101410.16
2022-09-23T05:54:02.879Z,101405.69
2022-09-23T05:56:31.070Z,101406.81
2022-09-23T05:59:00.459Z,101407.09
2022-09-23T06:01:32.241Z,101401.25
2022-09-23T06:04:05.407Z,101397.75
2022-09-23T06:06:37.826Z,101395.53
2022-09-23T06:09:06.935Z,101390.22
2022-09-23T06:11:35.723Z,101388.63
2022-09-23T06:14:03.843Z,101387.00
2022-09-23T06:16:33.656Z,101394.44
2022-09-23T06:19:19.590Z,101387.31
2022-09-23T06:21:48.923Z,101381.72
2022-09-23T06:24:20.652Z,101384.88
2022-09-23T06:26:49.117Z,101394.09
2022-09-23T06:29:18.131Z,101395.19
2022-09-23T06:31:45.532Z,101388.41
2022-09-23T06:34:16.300Z,101385.13
2022-09-23T06:36:45.858Z,101387.50
2022-09-23T06:39:15.538Z,101385.31
2022-09-23T06:41:46.187Z,101384.56
2022-09-23T06:44:14.519Z,101384.63
2022-09-23T06:46:42.387Z,101384.97
2022-09-23T06:49:10.583Z,101384.59
2022-09-23T06:51:37.956Z,101387.38
2022-09-23T06:54:05.382Z,101391.81
2022-09-23T06:56:37.924Z,101384.25
2022-09-23T06:59:09.626Z,101386.47
2022-09-23T07:01:37.068Z,101384.72
2022-09-23T07:04:04.793Z,101384.97
2022-09-23T07:06:32.150Z,101383.69
2022-09-23T07:09:00.954Z,101386.53
2022-09-23T07:11:32.267Z,101389.59
2022-09-23T07:13:59.546Z,101389.66
2022-09-23T07:16:26.849Z,101380.72
2022-09-23T07:18:54.767Z,101386.72
2022-09-23T07:21:22.077Z,101388.63
2022-09-23T07:23:51.303Z,101384.38
2022-09-23T07:26:19.834Z,101386.19
2022-09-23T07:28:48.099Z,101384.97
2022-09-23T07:31:27.236Z,101393.84
2022-09-23T07:34:01.776Z,101388.78
2022-09-23T07:36:32.610Z,101400.22
2022-09-23T07:39:03.898Z,101396.69
2022-09-23T07:41:33.120Z,101402.72
2022-09-23T07:44:01.181Z,101399.19
2022-09-23T07:46:34.042Z,101400.16
2022-09-23T07:49:03.250Z,101402.59
2022-09-23T07:51:36.791Z,101399.16
2022-09-23T07:54:11.675Z,101409.34
2022-09-23T07:56:39.382Z,101404.34
2022-09-23T07:59:08.934Z,101406.19
2022-09-23T08:01:42.131Z,101405.94
2022-09-23T08:04:25.326Z,101401.19
2022-09-23T08:06:55.835Z,101403.56
2022-09-23T08:09:28.795Z,101395.94
2022-09-23T08:11:56.079Z,101400.69
2022-09-23T08:14:24.120Z,101396.06
2022-09-23T08:16:52.263Z,101403.19
2022-09-23T08:19:20.029Z,101399.09
2022-09-23T08:21:48.232Z,101401.13
2022-09-23T08:24:18.290Z,101400.72
2022-09-23T08:26:46.880Z,101400.50
2022-09-23T08:29:16.496Z,101400.25
2022-09-23T08:31:44.128Z,101410.84
2022-09-23T08:34:11.504Z,101401.28
2022-09-23T08:36:38.845Z,101403.66
2022-09-23T08:39:06.760Z,101400.19
2022-09-23T08:41:36.748Z,101407.63
2022-09-23T08:44:16.990Z,101406.72
2022-09-23T08:46:49.584Z,101404.22
2022-09-23T08:49:33.368Z,101410.84
2022-09-23T08:52:09.846Z,101405.94
2022-09-23T08:54:37.107Z,101402.41
2022-09-23T08:57:06.675Z,101401.84
2022-09-23T08:59:44.784Z,101402.78
2022-09-23T09:02:20.176Z,101403.53
2022-09-23T09:04:53.552Z,101401.72
2022-09-23T09:07:37.382Z,101392.63
2022-09-23T09:10:20.601Z,101402.81
2022-09-23T09:12:51.066Z,101392.06
2022-09-23T09:15:27.314Z,101389.47
2022-09-23T09:18:19.964Z,101391.03
2022-09-23T09:21:13.978Z,101385.38
2022-09-23T09:24:00.098Z,101385.19
2022-09-23T09:26:31.893Z,101381.56
2022-09-23T09:29:36.204Z,101388.91
2022-09-23T09:32:19.915Z,101378.22
2022-09-23T09:35:05.612Z,101384.47
2022-09-23T09:37:53.953Z,101377.31
2022-09-23T09:40:21.450Z,101375.16
2022-09-23T09:42:50.287Z,101380.56
2022-09-23T09:45:24.245Z,101376.31
2022-09-23T09:48:13.558Z,101377.28
2022-09-23T09:50:42.502Z,101375.63
2022-09-23T09:53:17.445Z,101384.22
2022-09-23T09:55:46.114Z,101385.13
2022-09-23T09:58:16.426Z,101384.38
2022-09-23T10:00:45.991Z,101383.91
2022-09-23T10:03:13.399Z,101389.16
2022-09-23T10:05:43.994Z,101379.41
2022-09-23T10:08:35.415Z,101382.56
2022-09-23T10:11:08.119Z,101378.56
2022-09-23T10:13:36.237Z,101367.41
2022-09-23T10:16:04.886Z,101367.91
2022-09-23T10:18:53.387Z,101365.09
2022-09-23T10:21:27.709Z,101375.81
2022-09-23T10:23:58.264Z,101365.63
2022-09-23T10:26:32.335Z,101363.56
2022-09-23T10:29:20.260Z,101365.00
2022-09-23T10:31:47.589Z,101361.03
2022-09-23T10:34:27.620Z,101359.38
2022-09-23T10:37:14.476Z,101357.66
2022-09-23T10:40:00.327Z,101355.63
2022-09-23T10:43:05.096Z,101359.19
2022-09-23T10:45:56.038Z,101356.50
2022-09-23T10:48:29.530Z,101358.09
2022-09-23T10:50:59.449Z,101356.66
2022-09-23T10:53:59.255Z,101351.72
2022-09-23T10:56:26.541Z,101352.97
2022-09-23T10:59:10.853Z,101352.28
2022-09-23T11:01:46.171Z,101344.78
2022-09-23T11:04:41.908Z,101353.69
2022-09-23T11:07:23.794Z,101341.22
2022-09-23T11:10:35.264Z,101338.44
2022-09-23T11:13:43.953Z,101340.22
2022-09-23T11:16:21.658Z,101326.50
2022-09-23T11:19:25.212Z,101323.72
2022-09-23T11:22:18.552Z,101326.44
2022-09-23T11:25:02.426Z,101323.47
2022-09-23T11:27:35.737Z,101331.50
2022-09-23T11:30:09.418Z,101311.53
2022-09-23T11:32:44.660Z,101312.25
2022-09-23T11:35:24.396Z,101307.16
2022-09-23T11:38:00.582Z,101301.53
2022-09-23T11:40:32.083Z,101298.97
2022-09-23T11:43:11.383Z,101302.84
2022-09-23T11:45:49.746Z,101289.31
2022-09-23T11:48:36.122Z,101290.31
2022-09-23T11:51:12.559Z,101285.16
2022-09-23T11:53:55.905Z,101289.69
2022-09-23T11:56:34.853Z,101281.66
2022-09-23T11:59:15.868Z,101283.97
2022-09-23T12:01:51.466Z,101278.41
2022-09-23T12:04:31.513Z,101276.34
2022-09-23T12:07:12.010Z,101277.97
2022-09-23T12:10:03.753Z,101270.28
2022-09-23T12:12:37.188Z,101273.75
2022-09-23T12:15:07.152Z,101269.69
2022-09-23T12:17:59.168Z,101266.09
2022-09-23T12:20:42.552Z,101262.91
2022-09-23T12:23:28.636Z,101259.19
2022-09-23T12:26:00.712Z,101262.41
2022-09-23T12:28:33.366Z,101251.97
2022-09-23T12:31:04.454Z,101247.75
2022-09-23T12:33:33.345Z,101254.81
2022-09-23T12:36:05.135Z,101256.75
2022-09-23T12:38:37.359Z,101254.84
2022-09-23T12:41:26.283Z,101243.91
2022-09-23T12:44:15.057Z,101239.94
2022-09-23T12:46:47.024Z,101256.25
2022-09-23T12:49:29.475Z,101244.63
2022-09-23T12:52:12.071Z,101240.56
2022-09-23T12:54:40.683Z,101230.94
2022-09-23T12:57:34.188Z,101226.84
2022-09-23T13:00:12.516Z,101220.94
2022-09-23T13:03:11.472Z,101220.41
2022-09-23T13:06:10.444Z,101219.88
2022-09-23T13:08:40.456Z,101202.28
2022-09-23T13:11:26.907Z,101203.69
2022-09-23T13:14:01.935Z,101203.03
2022-09-23T13:16:37.049Z,101198.13
2022-09-23T13:19:06.599Z,101198.88
2022-09-23T13:21:42.963Z,101195.78
2022-09-23T13:24:13.337Z,101193.41
2022-09-23T13:26:46.581Z,101187.25
2022-09-23T13:29:29.493Z,101184.88
2022-09-23T13:31:57.996Z,101183.41
2022-09-23T13:34:31.389Z,101188.75
2022-09-23T13:36:58.947Z,101186.38
2022-09-23T13:39:27.632Z,101177.53
2022-09-23T13:42:04.653Z,101189.09
2022-09-23T13:44:31.942Z,101182.69
2022-09-23T13:47:03.274Z,101181.00
2022-09-23T13:49:35.356Z,101177.84
2022-09-23T13:52:03.667Z,101172.06
2022-09-23T13:54:33.410Z,101176.97
2022-09-23T13:57:00.966Z,101176.53
2022-09-23T13:59:36.636Z,101175.41
2022-09-23T14:02:04.738Z,101177.53
2022-09-23T14:04:33.492Z,101164.16
2022-09-23T14:07:04.651Z,101177.38
2022-09-23T14:09:32.473Z,101172.63
2022-09-23T14:12:01.566Z,101172.69
2022-09-23T14:14:30.570Z,101162.31
2022-09-23T14:16:59.125Z,101154.34
2022-09-23T14:19:29.672Z,101153.56
2022-09-23T14:21:56.957Z,101155.22
2022-09-23T14:24:29.934Z,101148.84
2022-09-23T14:27:04.021Z,101150.44
2022-09-23T14:29:33.995Z,101148.81
2022-09-23T14:32:05.235Z,101148.47
2022-09-23T14:34:44.699Z,101153.59
2022-09-23T14:37:36.849Z,101148.06
2022-09-23T14:40:11.024Z,101144.09
2022-09-23T14:42:41.503Z,101137.78
2022-09-23T14:45:14.266Z,101139.34
2022-09-23T14:47:51.992Z,101132.19
2022-09-23T14:50:40.603Z,101136.19
2022-09-23T14:53:18.444Z,101138.56
2022-09-23T14:55:47.209Z,101133.00
2022-09-23T14:58:19.473Z,101133.00
2022-09-23T15:00:55.267Z,101135.38
2022-09-23T15:03:23.041Z,101135.41
2022-09-23T15:05:57.840Z,101134.59
2022-09-23T15:08:27.555Z,101129.38
2022-09-23T15:10:55.176Z,101133.75
2022-09-23T15:13:28.827Z,101136.50
2022-09-23T15:15:57.908Z,101132.56
2022-09-23T15:18:29.118Z,101123.41
2022-09-23T15:21:01.952Z,101112.31
2022-09-23T15:23:44.627Z,101130.53
2022-09-23T15:26:14.239Z,101124.56
2022-09-23T15:28:42.855Z,101121.81
2022-09-23T15:31:15.083Z,101117.03
2022-09-23T15:33:47.714Z,101121.00
2022-09-23T15:36:25.850Z,101120.19
2022-09-23T15:39:01.228Z,101121.00
2022-09-23T15:41:28.695Z,101106.38
2022-09-23T15:43:56.511Z,101117.03
2022-09-23T15:46:28.182Z,101113.88
2022-09-23T15:49:00.182Z,101091.28
2022-09-23T15:51:28.299Z,101104.31
2022-09-23T15:53:56.428Z,101098.41
2022-09-23T15:56:24.780Z,101107.91
2022-09-23T15:58:52.136Z,101103.94
2022-09-23T16:01:30.579Z,101096.78
2022-09-23T16:04:01.215Z,101100.22
2022-09-23T16:06:28.616Z,101090.78
2022-09-23T16:08:56.200Z,101096.72
2022-09-23T16:11:31.870Z,101098.63
2022-09-23T16:14:00.706Z,101104.19
2022-09-23T16:16:28.550Z,101088.63
2022-09-23T16:18:55.947Z,101098.19
2022-09-23T16:21:26.347Z,101098.88
2022-09-23T16:23:55.120Z,101100.75
2022-09-23T16:26:43.963Z,101099.13
2022-09-23T16:29:14.351Z,101095.44
2022-09-23T16:31:42.600Z,101093.03
2022-09-23T16:34:09.876Z,101094.03
2022-09-23T16:36:42.959Z,101083.72
2022-09-23T16:39:13.164Z,101100.34
2022-09-23T16:41:42.850Z,101099.44
2022-09-23T16:44:12.346Z,101094.91
2022-09-23T16:46:42.793Z,101092.75
2022-09-23T16:49:12.118Z,101097.44
2022-09-23T16:51:40.100Z,101080.75
2022-09-23T16:54:10.988Z,101092.59
2022-09-23T16:56:44.207Z,101088.94
2022-09-23T16:59:13.236Z,101086.13
2022-09-23T17:01:59.295Z,101096.69
2022-09-23T17:04:27.694Z,101086.72
2022-09-23T17:06:56.017Z,101097.69
2022-09-23T17:09:26.235Z,101098.50
2022-09-23T17:12:26.844Z,101101.59
2022-09-23T17:14:54.267Z,101099.81
2022-09-23T17:17:22.231Z,101102.91
2022-09-23T17:19:49.469Z,101098.44
2022-09-23T17:22:17.288Z,101106.97
2022-09-23T17:24:44.587Z,101107.75
2022-09-23T17:27:11.971Z,101097.53
2022-09-23T17:29:41.683Z,101104.31
2022-09-23T17:32:09.498Z,101100.31
2022-09-23T17:34:36.733Z,101108.97
2022-09-23T17:37:04.165Z,101100.16
2022-09-23T17:39:31.805Z,101099.63
2022-09-23T17:41:59.249Z,101106.72
2022-09-23T17:44:26.724Z,101103.88
2022-09-23T17:46:54.100Z,101103.81
2022-09-23T17:49:21.949Z,101107.28
2022-09-23T17:51:49.158Z,101101.66
2022-09-23T17:54:16.585Z,101106.72
2022-09-23T17:56:44.382Z,101104.28
2022-09-23T17:59:15.008Z,101103.09
2022-09-23T18:01:42.294Z,101100.72
2022-09-23T18:04:12.118Z,101109.38
2022-09-23T18:06:39.385Z,101111.69
2022-09-23T18:09:08.665Z,101122.31
2022-09-23T18:11:38.558Z,101114.72
2022-09-23T18:14:18.655Z,101112.28
2022-09-23T18:16:49.006Z,101117.47
2022-09-23T18:19:18.736Z,101123.34
2022-09-23T18:21:50.453Z,101130.97
2022-09-23T18:24:31.718Z,101129.63
2022-09-23T18:27:00.019Z,101131.28
2022-09-23T18:29:28.146Z,101139.88
2022-09-23T18:31:55.725Z,101129.34
2022-09-23T18:34:23.632Z,101147.97
2022-09-23T18:36:50.928Z,101136.53
2022-09-23T18:39:18.231Z,101140.09
2022-09-23T18:41:45.539Z,101147.06
2022-09-23T18:44:12.923Z,101146.69
2022-09-23T18:46:40.151Z,101146.91
2022-09-23T18:49:29.194Z,101150.75
2022-09-23T18:51:57.998Z,101152.69
2022-09-23T18:54:27.812Z,101151.78
2022-09-23T18:56:55.215Z,101154.75
2022-09-23T18:59:26.366Z,101150.75
2022-09-23T19:01:56.821Z,101150.69
2022-09-23T19:04:25.829Z,101147.38
2022-09-23T19:06:56.343Z,101151.00
2022-09-23T19:09:23.828Z,101149.16
2022-09-23T19:11:52.271Z,101152.66
2022-09-23T19:14:19.955Z,101149.97
2022-09-23T19:16:49.178Z,101149.72
2022-09-23T19:19:17.325Z,101149.97
2022-09-23T19:21:44.699Z,101148.94
2022-09-23T19:24:15.739Z,101145.84
2022-09-23T19:26:43.932Z,101148.13
2022-09-23T19:29:16.789Z,101148.38
2022-09-23T19:31:44.192Z,101154.56
2022-09-23T19:34:17.887Z,101137.63
2022-09-23T19:36:46.827Z,101143.56
2022-09-23T19:39:23.696Z,101147.22
2022-09-23T19:41:52.580Z,101144.41
2022-09-23T19:44:20.258Z,101145.69
2022-09-23T19:46:53.427Z,101140.34
2022-09-23T19:49:24.486Z,101130.31
2022-09-23T19:51:55.159Z,101135.66
2022-09-23T19:54:22.859Z,101142.44
2022-09-23T19:56:50.560Z,101132.38
2022-09-23T19:59:19.388Z,101136.06
2022-09-23T20:01:48.231Z,101134.81
2022-09-23T20:04:16.709Z,101135.25
2022-09-23T20:06:45.814Z,101146.03
2022-09-23T20:09:13.327Z,101132.63
2022-09-23T20:11:42.932Z,101138.69
2022-09-23T20:14:11.645Z,101136.13
2022-09-23T20:16:38.954Z,101134.88
2022-09-23T20:19:06.334Z,101136.06
2022-09-23T20:21:34.238Z,101140.13
2022-09-23T20:24:04.422Z,101139.66
2022-09-23T20:26:50.390Z,101150.78
2022-09-23T20:29:17.800Z,101150.47
2022-09-23T20:31:45.185Z,101156.16
2022-09-23T20:34:12.886Z,101154.81
2022-09-23T20:36:41.443Z,101152.44
2022-09-23T20:39:10.308Z,101161.19
2022-09-23T20:41:39.184Z,101159.72
2022-09-23T20:44:14.204Z,101164.94
2022-09-23T20:46:48.861Z,101159.91
2022-09-23T20:49:20.830Z,101167.34
2022-09-23T20:51:48.931Z,101164.25
2022-09-23T20:54:19.130Z,101157.94
2022-09-23T20:56:47.106Z,101165.06
2022-09-23T20:59:15.013Z,101159.22
2022-09-23T21:01:42.796Z,101166.38
2022-09-23T21:04:13.272Z,101166.88
2022-09-23T21:06:40.592Z,101166.44
2022-09-23T21:09:08.034Z,101161.75
2022-09-23T21:11:35.609Z,101162.16
2022-09-23T21:14:03.041Z,101166.09
2022-09-23T21:16:30.480Z,101169.88
2022-09-23T21:18:58.119Z,101169.63
2022-09-23T21:21:26.444Z,101166.34
2022-09-23T21:23:53.892Z,101165.44
2022-09-23T21:26:23.474Z,101168.03
2022-09-23T21:28:53.331Z,101157.03
2022-09-23T21:31:23.357Z,101163.06
2022-09-23T21:33:55.824Z,101158.00
2022-09-23T21:36:24.749Z,101162.06
2022-09-23T21:38:52.892Z,101165.19
2022-09-23T21:41:20.356Z,101168.03
2022-09-23T21:43:49.680Z,101156.94
2022-09-23T21:46:22.179Z,101164.66
2022-09-23T21:48:53.575Z,101155.78
2022-09-23T21:51:25.392Z,101158.78
2022-09-23T21:53:54.770Z,101171.66
2022-09-23T21:56:31.286Z,101166.88
2022-09-23T21:58:59.952Z,101160.47
2022-09-23T22:01:29.895Z,101157.47
2022-09-23T22:03:59.426Z,101166.50
2022-09-23T22:06:29.350Z,101163.56
2022-09-23T22:09:01.782Z,101161.78
2022-09-23T22:11:51.424Z,101164.47
2022-09-23T22:14:20.567Z,101169.88
2022-09-23T22:16:48.061Z,101162.94
2022-09-23T22:19:15.615Z,101171.38
2022-09-23T22:21:45.461Z,101166.97
2022-09-23T22:24:13.338Z,101172.91
2022-09-23T22:26:42.837Z,101171.03
2022-09-23T22:29:32.967Z,101167.03
2022-09-23T22:32:20.366Z,101173.94
2022-09-23T22:34:51.986Z,101170.63
2022-09-23T22:37:21.167Z,101166.19
2022-09-23T22:39:48.390Z,101171.25
2022-09-23T22:42:16.195Z,101170.81
2022-09-23T22:44:44.376Z,101163.66
2022-09-23T22:47:11.663Z,101168.06
2022-09-23T22:49:39.007Z,101155.94
2022-09-23T22:52:11.186Z,101165.34
2022-09-23T22:54:38.612Z,101169.44
2022-09-23T22:57:09.518Z,101166.16
2022-09-23T22:59:37.626Z,101168.03
2022-09-23T23:02:06.630Z,101162.69
2022-09-23T23:04:34.132Z,101159.66
2022-09-23T23:07:03.220Z,101159.50
2022-09-23T23:09:30.488Z,101154.44
2022-09-23T23:11:57.761Z,101158.53
2022-09-23T23:14:26.359Z,101148.88
2022-09-23T23:16:54.390Z,101145.38
2022-09-23T23:19:21.856Z,101154.09
2022-09-23T23:21:50.408Z,101159.50
2022-09-23T23:24:20.080Z,101150.09
2022-09-23T23:26:47.485Z,101154.53
2022-09-23T23:29:17.305Z,101157.63
2022-09-23T23:31:45.149Z,101147.25
2022-09-23T23:34:17.607Z,101144.50
2022-09-23T23:36:46.320Z,101150.00
2022-09-23T23:39:14.537Z,101153.53
2022-09-23T23:41:42.456Z,101146.03
2022-09-23T23:44:12.453Z,101143.78
2022-09-23T23:46:39.788Z,101140.84
2022-09-23T23:49:07.156Z,101133.69
2022-09-23T23:51:34.443Z,101141.59
2022-09-23T23:54:01.794Z,101129.84
2022-09-23T23:56:30.691Z,101126.41
2022-09-23T23:59:00.331Z,101129.78
